sensor_id;sensor_type;location;lat;lon;timestamp;pressure;altitude;pressure_sealevel;temperature;humidity
46015;BME280;36844;51.898;-0.874;2023-04-06T00:01:59;100294.78;;;18.80;
46015;BME280;36844;51.898;-0.874;2023-04-06T00:04:25;100290.97;;;18.77;
46015;BME280;36844;51.898;-0.874;2023-04-06T00:06:50;100285.97;;;18.76;
46015;BME280;36844;51.898;-0.874;2023-04-06T00:09:15;100287.13;;;18.75;
46015;BME280;36844;51.898;-0.874;2023-04-06T00:11:41;100287.56;;;18.73;
46015;BME280;36844;51.898;-0.874;2023-04-06T00:14:06;100278.31;;;18.71;
46015;BME280;36844;51.898;-0.874;2023-04-06T00:16:31;100282.22;;;18.70;
46015;BME280;36844;51.898;-0.874;2023-04-06T00:18:56;100279.13;;;18.68;
46015;BME280;36844;51.898;-0.874;2023-04-06T00:21:22;100272.19;;;18.67;
46015;BME280;36844;51.898;-0.874;2023-04-06T00:23:47;100275.31;;;18.65;
46015;BME280;36844;51.898;-0.874;2023-04-06T00:26:12;100273.78;;;18.64;
46015;BME280;36844;51.898;-0.874;2023-04-06T00:28:37;100258.00;;;18.63;
46015;BME280;36844;51.898;-0.874;2023-04-06T00:31:03;100264.56;;;18.62;
46015;BME280;36844;51.898;-0.874;2023-04-06T00:33:28;100262.25;;;18.60;
46015;BME280;36844;51.898;-0.874;2023-04-06T00:35:53;100260.75;;;18.59;
46015;BME280;36844;51.898;-0.874;2023-04-06T00:38:18;100256.91;;;18.57;
46015;BME280;36844;51.898;-0.874;2023-04-06T00:40:44;100251.94;;;18.55;
46015;BME280;36844;51.898;-0.874;2023-04-06T00:43:09;100251.19;;;18.55;
46015;BME280;36844;51.898;-0.874;2023-04-06T00:45:35;100252.34;;;18.54;
46015;BME280;36844;51.898;-0.874;2023-04-06T00:48:01;100241.53;;;18.54;
46015;BME280;36844;51.898;-0.874;2023-04-06T00:50:30;100239.66;;;18.51;
46015;BME280;36844;51.898;-0.874;2023-04-06T00:52:55;100232.72;;;18.50;
46015;BME280;36844;51.898;-0.874;2023-04-06T00:55:20;100230.44;;;18.48;
46015;BME280;36844;51.898;-0.874;2023-04-06T00:57:46;100235.06;;;18.48;
46015;BME280;36844;51.898;-0.874;2023-04-06T01:00:12;100221.97;;;18.46;
46015;BME280;36844;51.898;-0.874;2023-04-06T01:02:37;100226.59;;;18.46;
46015;BME280;36844;51.898;-0.874;2023-04-06T01:05:03;100220.84;;;18.44;
46015;BME280;36844;51.898;-0.874;2023-04-06T01:07:28;100217.81;;;18.42;
46015;BME280;36844;51.898;-0.874;2023-04-06T01:09:54;100208.19;;;18.41;
46015;BME280;36844;51.898;-0.874;2023-04-06T01:12:19;100206.63;;;18.40;
46015;BME280;36844;51.898;-0.874;2023-04-06T01:14:44;100203.59;;;18.38;
46015;BME280;36844;51.898;-0.874;2023-04-06T01:17:10;100198.22;;;18.38;
46015;BME280;36844;51.898;-0.874;2023-04-06T01:19:36;100193.19;;;18.36;
46015;BME280;36844;51.898;-0.874;2023-04-06T01:22:01;100186.31;;;18.35;
46015;BME280;36844;51.898;-0.874;2023-04-06T01:24:26;100187.47;;;18.34;
46015;BME280;36844;51.898;-0.874;2023-04-06T01:26:51;100192.09;;;18.34;
46015;BME280;36844;51.898;-0.874;2023-04-06T01:29:17;100191.31;;;18.33;
46015;BME280;36844;51.898;-0.874;2023-04-06T01:31:42;100189.03;;;18.32;
46015;BME280;36844;51.898;-0.874;2023-04-06T01:34:07;100184.81;;;18.31;
46015;BME280;36844;51.898;-0.874;2023-04-06T01:36:32;100181.34;;;18.30;
46015;BME280;36844;51.898;-0.874;2023-04-06T01:38:57;100179.03;;;18.29;
46015;BME280;36844;51.898;-0.874;2023-04-06T01:41:23;100179.03;;;18.29;
46015;BME280;36844;51.898;-0.874;2023-04-06T01:43:48;100165.22;;;18.27;
46015;BME280;36844;51.898;-0.874;2023-04-06T01:46:14;100164.47;;;18.26;
46015;BME280;36844;51.898;-0.874;2023-04-06T01:48:39;100162.16;;;18.25;
46015;BME280;36844;51.898;-0.874;2023-04-06T01:51:05;100161.41;;;18.24;
46015;BME280;36844;51.898;-0.874;2023-04-06T01:53:30;100161.41;;;18.24;
46015;BME280;36844;51.898;-0.874;2023-04-06T01:55:56;100153.72;;;18.23;
46015;BME280;36844;51.898;-0.874;2023-04-06T01:58:21;100158.34;;;18.22;
46015;BME280;36844;51.898;-0.874;2023-04-06T02:00:46;100148.72;;;18.21;
46015;BME280;36844;51.898;-0.874;2023-04-06T02:03:11;100151.84;;;18.20;
46015;BME280;36844;51.898;-0.874;2023-04-06T02:05:37;100147.59;;;18.19;
46015;BME280;36844;51.898;-0.874;2023-04-06T02:08:03;100144.91;;;18.19;
46015;BME280;36844;51.898;-0.874;2023-04-06T02:10:28;100145.28;;;18.17;
46015;BME280;36844;51.898;-0.874;2023-04-06T02:12:54;100139.16;;;18.17;
46015;BME280;36844;51.898;-0.874;2023-04-06T02:15:19;100131.47;;;18.15;
46015;BME280;36844;51.898;-0.874;2023-04-06T02:17:44;100135.31;;;18.14;
46015;BME280;36844;51.898;-0.874;2023-04-06T02:20:10;100134.56;;;18.14;
46015;BME280;36844;51.898;-0.874;2023-04-06T02:22:35;100129.59;;;18.12;
46015;BME280;36844;51.898;-0.874;2023-04-06T02:25:00;100122.28;;;18.13;
46015;BME280;36844;51.898;-0.874;2023-04-06T02:27:26;100125.38;;;18.11;
46015;BME280;36844;51.898;-0.874;2023-04-06T02:29:51;100128.06;;;18.11;
46015;BME280;36844;51.898;-0.874;2023-04-06T02:32:16;100121.91;;;18.11;
46015;BME280;36844;51.898;-0.874;2023-04-06T02:34:41;100120.03;;;18.08;
46015;BME280;36844;51.898;-0.874;2023-04-06T02:37:07;100119.25;;;18.07;
46015;BME280;36844;51.898;-0.874;2023-04-06T02:39:32;100106.94;;;18.06;
46015;BME280;36844;51.898;-0.874;2023-04-06T02:41:57;100103.50;;;18.06;
46015;BME280;36844;51.898;-0.874;2023-04-06T02:44:22;100110.06;;;18.05;
46015;BME280;36844;51.898;-0.874;2023-04-06T02:46:48;100106.59;;;18.04;
46015;BME280;36844;51.898;-0.874;2023-04-06T02:49:13;100103.13;;;18.04;
46015;BME280;36844;51.898;-0.874;2023-04-06T02:51:38;100101.59;;;18.03;
46015;BME280;36844;51.898;-0.874;2023-04-06T02:54:03;100103.94;;;18.01;
46015;BME280;36844;51.898;-0.874;2023-04-06T02:56:29;100106.63;;;18.01;
46015;BME280;36844;51.898;-0.874;2023-04-06T02:58:54;100098.56;;;18.01;
46015;BME280;36844;51.898;-0.874;2023-04-06T03:01:19;100102.41;;;18.00;
46015;BME280;36844;51.898;-0.874;2023-04-06T03:03:45;100088.56;;;17.98;
46015;BME280;36844;51.898;-0.874;2023-04-06T03:06:10;100093.94;;;17.98;
46015;BME280;36844;51.898;-0.874;2023-04-06T03:08:35;100087.81;;;17.97;
46015;BME280;36844;51.898;-0.874;2023-04-06T03:11:00;100092.44;;;17.97;
46015;BME280;36844;51.898;-0.874;2023-04-06T03:13:26;100085.50;;;17.96;
46015;BME280;36844;51.898;-0.874;2023-04-06T03:15:51;100090.16;;;17.95;
46015;BME280;36844;51.898;-0.874;2023-04-06T03:18:20;100084.00;;;17.95;
46015;BME280;36844;51.898;-0.874;2023-04-06T03:20:45;100085.16;;;17.94;
46015;BME280;36844;51.898;-0.874;2023-04-06T03:23:12;100074.03;;;17.92;
46015;BME280;36844;51.898;-0.874;2023-04-06T03:25:37;100074.78;;;17.92;
46015;BME280;36844;51.898;-0.874;2023-04-06T03:28:04;100062.50;;;17.91;
46015;BME280;36844;51.898;-0.874;2023-04-06T03:30:29;100056.31;;;17.91;
46015;BME280;36844;51.898;-0.874;2023-04-06T03:32:55;100054.81;;;17.90;
46015;BME280;36844;51.898;-0.874;2023-04-06T03:35:20;100066.34;;;17.90;
46015;BME280;36844;51.898;-0.874;2023-04-06T03:37:45;100069.44;;;17.89;
46015;BME280;36844;51.898;-0.874;2023-04-06T03:40:10;100065.22;;;17.88;
46015;BME280;36844;51.898;-0.874;2023-04-06T03:42:36;100059.06;;;17.87;
46015;BME280;36844;51.898;-0.874;2023-04-06T03:45:01;100049.44;;;17.86;
46015;BME280;36844;51.898;-0.874;2023-04-06T03:47:26;100047.94;;;17.85;
46015;BME280;36844;51.898;-0.874;2023-04-06T03:49:51;100052.53;;;17.85;
46015;BME280;36844;51.898;-0.874;2023-04-06T03:52:17;100053.72;;;17.84;
46015;BME280;36844;51.898;-0.874;2023-04-06T03:54:42;100054.88;;;17.83;
46015;BME280;36844;51.898;-0.874;2023-04-06T03:57:07;100049.50;;;17.83;
46015;BME280;36844;51.898;-0.874;2023-04-06T03:59:32;100054.88;;;17.83;
46015;BME280;36844;51.898;-0.874;2023-04-06T04:01:57;100043.34;;;17.82;
46015;BME280;36844;51.898;-0.874;2023-04-06T04:04:23;100052.59;;;17.81;
46015;BME280;36844;51.898;-0.874;2023-04-06T04:06:48;100051.06;;;17.80;
46015;BME280;36844;51.898;-0.874;2023-04-06T04:09:13;100038.00;;;17.78;
46015;BME280;36844;51.898;-0.874;2023-04-06T04:11:38;100032.59;;;17.78;
46015;BME280;36844;51.898;-0.874;2023-04-06T04:14:04;100033.78;;;17.77;
46015;BME280;36844;51.898;-0.874;2023-04-06T04:16:29;100025.34;;;17.75;
46015;BME280;36844;51.898;-0.874;2023-04-06T04:18:54;100028.03;;;17.75;
46015;BME280;36844;51.898;-0.874;2023-04-06T04:21:20;100019.94;;;17.75;
46015;BME280;36844;51.898;-0.874;2023-04-06T04:23:45;100024.97;;;17.73;
46015;BME280;36844;51.898;-0.874;2023-04-06T04:26:10;100019.59;;;17.73;
46015;BME280;36844;51.898;-0.874;2023-04-06T04:28:35;100028.84;;;17.72;
46015;BME280;36844;51.898;-0.874;2023-04-06T04:31:01;100019.59;;;17.73;
46015;BME280;36844;51.898;-0.874;2023-04-06T04:33:26;100021.94;;;17.71;
46015;BME280;36844;51.898;-0.874;2023-04-06T04:35:51;100017.72;;;17.70;
46015;BME280;36844;51.898;-0.874;2023-04-06T04:38:16;100020.41;;;17.70;
46015;BME280;36844;51.898;-0.874;2023-04-06T04:40:41;100024.28;;;17.69;
46015;BME280;36844;51.898;-0.874;2023-04-06T04:43:07;100024.28;;;17.69;
46015;BME280;36844;51.898;-0.874;2023-04-06T04:45:32;100020.81;;;17.69;
46015;BME280;36844;51.898;-0.874;2023-04-06T04:47:57;100013.88;;;17.68;
46015;BME280;36844;51.898;-0.874;2023-04-06T04:50:23;100011.19;;;17.68;
46015;BME280;36844;51.898;-0.874;2023-04-06T04:52:48;100011.19;;;17.68;
46015;BME280;36844;51.898;-0.874;2023-04-06T04:55:13;100003.53;;;17.66;
46015;BME280;36844;51.898;-0.874;2023-04-06T04:57:38;100008.91;;;17.66;
46015;BME280;36844;51.898;-0.874;2023-04-06T05:00:04;100003.94;;;17.65;
46015;BME280;36844;51.898;-0.874;2023-04-06T05:02:30;100003.16;;;17.64;
46015;BME280;36844;51.898;-0.874;2023-04-06T05:04:55;100009.31;;;17.65;
46015;BME280;36844;51.898;-0.874;2023-04-06T05:07:21;100005.09;;;17.64;
46015;BME280;36844;51.898;-0.874;2023-04-06T05:09:46;100011.63;;;17.63;
46015;BME280;36844;51.898;-0.874;2023-04-06T05:12:11;100002.06;;;17.62;
46015;BME280;36844;51.898;-0.874;2023-04-06T05:14:37;99997.06;;;17.60;
46015;BME280;36844;51.898;-0.874;2023-04-06T05:17:02;99999.75;;;17.60;
46015;BME280;36844;51.898;-0.874;2023-04-06T05:19:27;100010.50;;;17.60;
46015;BME280;36844;51.898;-0.874;2023-04-06T05:21:52;100007.06;;;17.60;
46015;BME280;36844;51.898;-0.874;2023-04-06T05:24:18;100008.22;;;17.59;
46015;BME280;36844;51.898;-0.874;2023-04-06T05:26:43;99997.47;;;17.59;
46015;BME280;36844;51.898;-0.874;2023-04-06T05:29:09;99988.63;;;17.58;
46015;BME280;36844;51.898;-0.874;2023-04-06T05:31:35;99994.41;;;17.57;
46015;BME280;36844;51.898;-0.874;2023-04-06T05:34:00;100009.78;;;17.56;
46015;BME280;36844;51.898;-0.874;2023-04-06T05:36:25;100009.78;;;17.56;
46015;BME280;36844;51.898;-0.874;2023-04-06T05:38:51;100016.31;;;17.55;
46015;BME280;36844;51.898;-0.874;2023-04-06T05:41:17;100017.53;;;17.54;
46015;BME280;36844;51.898;-0.874;2023-04-06T05:43:43;100012.16;;;17.54;
46015;BME280;36844;51.898;-0.874;2023-04-06T05:46:08;100017.53;;;17.54;
46015;BME280;36844;51.898;-0.874;2023-04-06T05:48:33;100017.53;;;17.54;
46015;BME280;36844;51.898;-0.874;2023-04-06T05:50:58;100023.66;;;17.55;
46015;BME280;36844;51.898;-0.874;2023-04-06T05:53:24;100017.53;;;17.54;
46015;BME280;36844;51.898;-0.874;2023-04-06T05:55:51;100013.63;;;17.55;
46015;BME280;36844;51.898;-0.874;2023-04-06T05:58:16;100010.56;;;17.57;
46015;BME280;36844;51.898;-0.874;2023-04-06T06:00:42;100021.69;;;17.59;
46015;BME280;36844;51.898;-0.874;2023-04-06T06:03:07;100017.81;;;17.60;
46015;BME280;36844;51.898;-0.874;2023-04-06T06:05:33;100020.13;;;17.61;
46015;BME280;36844;51.898;-0.874;2023-04-06T06:07:58;100025.84;;;17.63;
46015;BME280;36844;51.898;-0.874;2023-04-06T06:10:26;100013.53;;;17.66;
46015;BME280;36844;51.898;-0.874;2023-04-06T06:12:52;100003.88;;;17.68;
46015;BME280;36844;51.898;-0.874;2023-04-06T06:15:17;100010.00;;;17.72;
46015;BME280;36844;51.898;-0.874;2023-04-06T06:17:42;100016.13;;;17.77;
46015;BME280;36844;51.898;-0.874;2023-04-06T06:20:08;100003.38;;;17.81;
46015;BME280;36844;51.898;-0.874;2023-04-06T06:22:33;100004.81;;;17.85;
46015;BME280;36844;51.898;-0.874;2023-04-06T06:24:58;99999.41;;;17.89;
46015;BME280;36844;51.898;-0.874;2023-04-06T06:27:24;99992.81;;;17.93;
46015;BME280;36844;51.898;-0.874;2023-04-06T06:29:49;100000.84;;;17.97;
46015;BME280;36844;51.898;-0.874;2023-04-06T06:32:14;99993.47;;;18.01;
46015;BME280;36844;51.898;-0.874;2023-04-06T06:34:40;100004.97;;;18.05;
46015;BME280;36844;51.898;-0.874;2023-04-06T06:37:05;100007.59;;;18.08;
46015;BME280;36844;51.898;-0.874;2023-04-06T06:39:31;100004.44;;;18.13;
46015;BME280;36844;51.898;-0.874;2023-04-06T06:41:56;100006.34;;;18.16;
46015;BME280;36844;51.898;-0.874;2023-04-06T06:44:21;100014.38;;;18.20;
46015;BME280;36844;51.898;-0.874;2023-04-06T06:46:47;100020.09;;;18.22;
46015;BME280;36844;51.898;-0.874;2023-04-06T06:49:12;100018.13;;;18.26;
46015;BME280;36844;51.898;-0.874;2023-04-06T06:51:37;100015.81;;;18.28;
46015;BME280;36844;51.898;-0.874;2023-04-06T06:54:02;100011.53;;;18.30;
46015;BME280;36844;51.898;-0.874;2023-04-06T06:56:28;100012.63;;;18.33;
46015;BME280;36844;51.898;-0.874;2023-04-06T06:58:53;100015.69;;;18.35;
46015;BME280;36844;51.898;-0.874;2023-04-06T07:01:19;100018.72;;;18.37;
46015;BME280;36844;51.898;-0.874;2023-04-06T07:03:44;100025.66;;;18.38;
46015;BME280;36844;51.898;-0.874;2023-04-06T07:06:09;100028.69;;;18.40;
46015;BME280;36844;51.898;-0.874;2023-04-06T07:08:34;100025.59;;;18.41;
46015;BME280;36844;51.898;-0.874;2023-04-06T07:11:00;100027.13;;;18.42;
46015;BME280;36844;51.898;-0.874;2023-04-06T07:13:25;100022.09;;;18.44;
46015;BME280;36844;51.898;-0.874;2023-04-06T07:15:51;100024.38;;;18.46;
46015;BME280;36844;51.898;-0.874;2023-04-06T07:18:17;100033.22;;;18.46;
46015;BME280;36844;51.898;-0.874;2023-04-06T07:20:43;100023.22;;;18.47;
46015;BME280;36844;51.898;-0.874;2023-04-06T07:23:08;100022.03;;;18.48;
46015;BME280;36844;51.898;-0.874;2023-04-06T07:25:33;100038.19;;;18.48;
46015;BME280;36844;51.898;-0.874;2023-04-06T07:27:58;100043.19;;;18.49;
46015;BME280;36844;51.898;-0.874;2023-04-06T07:30:24;100037.03;;;18.49;
46015;BME280;36844;51.898;-0.874;2023-04-06T07:32:51;100037.03;;;18.49;
46015;BME280;36844;51.898;-0.874;2023-04-06T07:35:16;100037.03;;;18.49;
46015;BME280;36844;51.898;-0.874;2023-04-06T07:37:42;100041.25;;;18.50;
46015;BME280;36844;51.898;-0.874;2023-04-06T07:40:07;100042.44;;;18.49;
46015;BME280;36844;51.898;-0.874;2023-04-06T07:42:33;100037.03;;;18.49;
46015;BME280;36844;51.898;-0.874;2023-04-06T07:44:58;100044.38;;;18.48;
46015;BME280;36844;51.898;-0.874;2023-04-06T07:47:23;100038.19;;;18.48;
46015;BME280;36844;51.898;-0.874;2023-04-06T07:49:49;100040.13;;;18.47;
46015;BME280;36844;51.898;-0.874;2023-04-06T07:52:14;100044.78;;;18.47;
46015;BME280;36844;51.898;-0.874;2023-04-06T07:54:40;100052.88;;;18.47;
46015;BME280;36844;51.898;-0.874;2023-04-06T07:57:05;100053.28;;;18.45;
46015;BME280;36844;51.898;-0.874;2023-04-06T07:59:30;100051.31;;;18.46;
46015;BME280;36844;51.898;-0.874;2023-04-06T08:01:56;100054.44;;;18.44;
46015;BME280;36844;51.898;-0.874;2023-04-06T08:04:21;100047.53;;;18.43;
46015;BME280;36844;51.898;-0.874;2023-04-06T08:06:46;100044.84;;;18.43;
46015;BME280;36844;51.898;-0.874;2023-04-06T08:09:11;100051.78;;;18.41;
46015;BME280;36844;51.898;-0.874;2023-04-06T08:11:37;100046.41;;;18.41;
46015;BME280;36844;51.898;-0.874;2023-04-06T08:14:02;100047.56;;;18.40;
46015;BME280;36844;51.898;-0.874;2023-04-06T08:16:27;100048.00;;;18.38;
46015;BME280;36844;51.898;-0.874;2023-04-06T08:18:52;100047.22;;;18.38;
46015;BME280;36844;51.898;-0.874;2023-04-06T08:21:18;100041.44;;;18.36;
46015;BME280;36844;51.898;-0.874;2023-04-06T08:23:43;100048.06;;;18.35;
46015;BME280;36844;51.898;-0.874;2023-04-06T08:26:08;100048.06;;;18.35;
46015;BME280;36844;51.898;-0.874;2023-04-06T08:28:34;100044.19;;;18.32;
46015;BME280;36844;51.898;-0.874;2023-04-06T08:31:03;100051.53;;;18.32;
46015;BME280;36844;51.898;-0.874;2023-04-06T08:33:28;100058.91;;;18.31;
46015;BME280;36844;51.898;-0.874;2023-04-06T08:35:53;100064.66;;;18.30;
46015;BME280;36844;51.898;-0.874;2023-04-06T08:38:19;100070.81;;;18.30;
46015;BME280;36844;51.898;-0.874;2023-04-06T08:40:44;100067.38;;;18.30;
46015;BME280;36844;51.898;-0.874;2023-04-06T08:43:12;100070.44;;;18.28;
46015;BME280;36844;51.898;-0.874;2023-04-06T08:45:38;100065.03;;;18.28;
46015;BME280;36844;51.898;-0.874;2023-04-06T08:48:04;100076.59;;;18.29;
46015;BME280;36844;51.898;-0.874;2023-04-06T08:50:32;100069.72;;;18.28;
46015;BME280;36844;51.898;-0.874;2023-04-06T08:52:57;100071.66;;;18.27;
46015;BME280;36844;51.898;-0.874;2023-04-06T08:55:23;100064.34;;;18.28;
46015;BME280;36844;51.898;-0.874;2023-04-06T08:57:49;100065.50;;;18.27;
46015;BME280;36844;51.898;-0.874;2023-04-06T09:00:14;100055.47;;;18.27;
46015;BME280;36844;51.898;-0.874;2023-04-06T09:02:42;100053.56;;;18.28;
46015;BME280;36844;51.898;-0.874;2023-04-06T09:05:08;100065.81;;;18.29;
46015;BME280;36844;51.898;-0.874;2023-04-06T09:07:35;100076.59;;;18.29;
46015;BME280;36844;51.898;-0.874;2023-04-06T09:10:00;100073.91;;;18.29;
46015;BME280;36844;51.898;-0.874;2023-04-06T09:12:29;100073.13;;;18.28;
46015;BME280;36844;51.898;-0.874;2023-04-06T09:14:55;100079.75;;;18.27;
46015;BME280;36844;51.898;-0.874;2023-04-06T09:17:30;100081.66;;;18.27;
46015;BME280;36844;51.898;-0.874;2023-04-06T09:19:57;100072.44;;;18.28;
46015;BME280;36844;51.898;-0.874;2023-04-06T09:22:23;100079.34;;;18.25;
46015;BME280;36844;51.898;-0.874;2023-04-06T09:24:51;100085.50;;;18.26;
46015;BME280;36844;51.898;-0.874;2023-04-06T09:27:17;100083.97;;;18.25;
46015;BME280;36844;51.898;-0.874;2023-04-06T09:29:42;100093.28;;;18.24;
46015;BME280;36844;51.898;-0.874;2023-04-06T09:32:08;100090.56;;;18.24;
46015;BME280;36844;51.898;-0.874;2023-04-06T09:34:36;100099.03;;;18.22;
46015;BME280;36844;51.898;-0.874;2023-04-06T09:37:11;100098.25;;;18.22;
46015;BME280;36844;51.898;-0.874;2023-04-06T09:39:37;100110.25;;;18.17;
46015;BME280;36844;51.898;-0.874;2023-04-06T09:42:02;100104.91;;;18.14;
46015;BME280;36844;51.898;-0.874;2023-04-06T09:44:27;100105.34;;;18.12;
46015;BME280;36844;51.898;-0.874;2023-04-06T09:46:53;100113.81;;;18.11;
46015;BME280;36844;51.898;-0.874;2023-04-06T09:49:18;100110.78;;;18.09;
46015;BME280;36844;51.898;-0.874;2023-04-06T09:51:47;100106.53;;;18.08;
46015;BME280;36844;51.898;-0.874;2023-04-06T09:54:20;100115.41;;;18.08;
46015;BME280;36844;51.898;-0.874;2023-04-06T09:59:38;100113.84;;;18.07;
46015;BME280;36844;51.898;-0.874;2023-04-06T10:02:06;100113.84;;;18.07;
46015;BME280;36844;51.898;-0.874;2023-04-06T10:04:37;100115.78;;;18.07;
46015;BME280;36844;51.898;-0.874;2023-04-06T10:07:05;100116.56;;;18.07;
46015;BME280;36844;51.898;-0.874;2023-04-06T10:09:31;100127.34;;;18.07;
46015;BME280;36844;51.898;-0.874;2023-04-06T10:12:04;100120.03;;;18.08;
46015;BME280;36844;51.898;-0.874;2023-04-06T10:14:31;100124.63;;;18.07;
46015;BME280;36844;51.898;-0.874;2023-04-06T10:16:56;100121.56;;;18.09;
46015;BME280;36844;51.898;-0.874;2023-04-06T10:19:24;100128.47;;;18.10;
46015;BME280;36844;51.898;-0.874;2023-04-06T10:21:51;100126.50;;;18.10;
46015;BME280;36844;51.898;-0.874;2023-04-06T10:24:18;100126.94;;;18.09;
46015;BME280;36844;51.898;-0.874;2023-04-06T10:26:54;100129.97;;;18.11;
46015;BME280;36844;51.898;-0.874;2023-04-06T10:29:21;100135.38;;;18.11;
46015;BME280;36844;51.898;-0.874;2023-04-06T10:31:48;100135.38;;;18.11;
46015;BME280;36844;51.898;-0.874;2023-04-06T10:34:13;100141.53;;;18.11;
46015;BME280;36844;51.898;-0.874;2023-04-06T10:36:39;100139.63;;;18.12;
46015;BME280;36844;51.898;-0.874;2023-04-06T10:39:05;100137.69;;;18.12;
46015;BME280;36844;51.898;-0.874;2023-04-06T10:43:59;100137.69;;;18.12;
46015;BME280;36844;51.898;-0.874;2023-04-06T10:46:26;100131.84;;;18.14;
46015;BME280;36844;51.898;-0.874;2023-04-06T10:48:52;100133.06;;;18.13;
46015;BME280;36844;51.898;-0.874;2023-04-06T10:51:17;100133.06;;;18.13;
46015;BME280;36844;51.898;-0.874;2023-04-06T10:53:44;100129.59;;;18.12;
46015;BME280;36844;51.898;-0.874;2023-04-06T10:56:11;100137.25;;;18.14;
46015;BME280;36844;51.898;-0.874;2023-04-06T10:58:36;100134.22;;;18.12;
46015;BME280;36844;51.898;-0.874;2023-04-06T11:01:02;100145.38;;;18.10;
46015;BME280;36844;51.898;-0.874;2023-04-06T11:03:27;100146.97;;;18.08;
46015;BME280;36844;51.898;-0.874;2023-04-06T11:05:53;100142.00;;;18.03;
46015;BME280;36844;51.898;-0.874;2023-04-06T11:08:25;100144.75;;;17.99;
46015;BME280;36844;51.898;-0.874;2023-04-06T11:10:50;100134.41;;;17.94;
46015;BME280;36844;51.898;-0.874;2023-04-06T11:13:16;100135.63;;;17.90;
46015;BME280;36844;51.898;-0.874;2023-04-06T11:15:41;100137.97;;;17.88;
46015;BME280;36844;51.898;-0.874;2023-04-06T11:18:06;100143.41;;;17.84;
46015;BME280;36844;51.898;-0.874;2023-04-06T11:20:31;100146.47;;;17.83;
46015;BME280;36844;51.898;-0.874;2023-04-06T11:22:56;100148.81;;;17.81;
46015;BME280;36844;51.898;-0.874;2023-04-06T11:25:24;100158.06;;;17.80;
46015;BME280;36844;51.898;-0.874;2023-04-06T11:27:49;100145.41;;;17.77;
46015;BME280;36844;51.898;-0.874;2023-04-06T11:30:15;100147.31;;;17.76;
46015;BME280;36844;51.898;-0.874;2023-04-06T11:32:41;100156.16;;;17.77;
46015;BME280;36844;51.898;-0.874;2023-04-06T11:35:19;100158.88;;;17.77;
46015;BME280;36844;51.898;-0.874;2023-04-06T11:37:45;100156.16;;;17.77;
46015;BME280;36844;51.898;-0.874;2023-04-06T11:40:10;100150.38;;;17.78;
46015;BME280;36844;51.898;-0.874;2023-04-06T11:42:36;100153.44;;;17.80;
46015;BME280;36844;51.898;-0.874;2023-04-06T11:45:01;100171.13;;;17.81;
46015;BME280;36844;51.898;-0.874;2023-04-06T11:47:30;100169.19;;;17.82;
46015;BME280;36844;51.898;-0.874;2023-04-06T11:49:56;100173.41;;;17.83;
46015;BME280;36844;51.898;-0.874;2023-04-06T11:52:29;100184.13;;;17.86;
46015;BME280;36844;51.898;-0.874;2023-04-06T11:54:55;100182.94;;;17.91;
46015;BME280;36844;51.898;-0.874;2023-04-06T11:57:22;100193.28;;;17.96;
46015;BME280;36844;51.898;-0.874;2023-04-06T11:59:50;100185.56;;;18.01;
46015;BME280;36844;51.898;-0.874;2023-04-06T12:02:16;100179.31;;;18.08;
46015;BME280;36844;51.898;-0.874;2023-04-06T12:04:42;100184.63;;;18.15;
46015;BME280;36844;51.898;-0.874;2023-04-06T12:07:07;100170.72;;;18.20;
46015;BME280;36844;51.898;-0.874;2023-04-06T12:09:33;100169.84;;;18.26;
46015;BME280;36844;51.898;-0.874;2023-04-06T12:11:59;100168.97;;;18.33;
46015;BME280;36844;51.898;-0.874;2023-04-06T12:14:25;100168.16;;;18.39;
46015;BME280;36844;51.898;-0.874;2023-04-06T12:16:50;100170.75;;;18.46;
46015;BME280;36844;51.898;-0.874;2023-04-06T12:19:16;100179.94;;;18.52;
46015;BME280;36844;51.898;-0.874;2023-04-06T12:21:41;100172.91;;;18.58;
46015;BME280;36844;51.898;-0.874;2023-04-06T12:24:07;100174.75;;;18.65;
46015;BME280;36844;51.898;-0.874;2023-04-06T12:26:33;100177.38;;;18.68;
46015;BME280;36844;51.898;-0.874;2023-04-06T12:28:58;100180.75;;;18.76;
46015;BME280;36844;51.898;-0.874;2023-04-06T12:31:31;100181.47;;;18.80;
46015;BME280;36844;51.898;-0.874;2023-04-06T12:33:57;100178.31;;;18.85;
46015;BME280;36844;51.898;-0.874;2023-04-06T12:36:22;100174.38;;;18.90;
46015;BME280;36844;51.898;-0.874;2023-04-06T12:38:47;100175.09;;;18.94;
46015;BME280;36844;51.898;-0.874;2023-04-06T12:41:13;100177.75;;;18.97;
46015;BME280;36844;51.898;-0.874;2023-04-06T12:43:39;100173.03;;;19.01;
46015;BME280;36844;51.898;-0.874;2023-04-06T12:46:04;100181.13;;;19.05;
46015;BME280;36844;51.898;-0.874;2023-04-06T12:48:30;100182.53;;;19.09;
46015;BME280;36844;51.898;-0.874;2023-04-06T12:50:57;100181.78;;;19.12;
46015;BME280;36844;51.898;-0.874;2023-04-06T12:53:22;100179.75;;;19.16;
46015;BME280;36844;51.898;-0.874;2023-04-06T12:55:47;100179.69;;;19.20;
46015;BME280;36844;51.898;-0.874;2023-04-06T12:58:13;100186.22;;;19.22;
46015;BME280;36844;51.898;-0.874;2023-04-06T13:00:38;100173.06;;;19.24;
46015;BME280;36844;51.898;-0.874;2023-04-06T13:03:03;100179.59;;;19.27;
46015;BME280;36844;51.898;-0.874;2023-04-06T13:05:28;100173.03;;;19.28;
46015;BME280;36844;51.898;-0.874;2023-04-06T13:07:54;100178.75;;;19.30;
46015;BME280;36844;51.898;-0.874;2023-04-06T13:10:19;100182.22;;;19.30;
46015;BME280;36844;51.898;-0.874;2023-04-06T13:12:44;100182.22;;;19.30;
46015;BME280;36844;51.898;-0.874;2023-04-06T13:15:10;100177.59;;;19.31;
46015;BME280;36844;51.898;-0.874;2023-04-06T13:17:35;100196.50;;;19.31;
46015;BME280;36844;51.898;-0.874;2023-04-06T13:20:00;100202.66;;;19.31;
46015;BME280;36844;51.898;-0.874;2023-04-06T13:22:26;100203.81;;;19.30;
46015;BME280;36844;51.898;-0.874;2023-04-06T13:24:51;100206.53;;;19.30;
46015;BME280;36844;51.898;-0.874;2023-04-06T13:27:16;100221.97;;;19.30;
46015;BME280;36844;51.898;-0.874;2023-04-06T13:29:41;100216.22;;;19.28;